Time;durP1;ratioP1;P1;durP2;ratioP2;P2;SDS_P1;SDS_P2;PMS_P1;PMS_P2;Temp;Humidity;BMP_temperature;BMP_pressure;BME280_temperature;BME280_humidity;BME280_pressure;Samples;Min_cycle;Max_cycle;Signal;HPM_P1;HPM_P2
2022/08/13 00:04:54;;;;;;;6.35;3.08;;;;;;;23.20;44.76;100342.97;18241622;32;20094;-55
2022/08/13 00:15:07;;;;;;;6.32;2.50;;;;;;;23.10;45.72;100334.59;18242135;32;20101;-55
2022/08/13 00:25:16;;;;;;;6.40;3.10;;;;;;;23.37;45.38;100328.69;18241488;32;20086;-55
2022/08/13 00:35:25;;;;;;;6.50;3.17;;;;;;;23.36;45.37;100323.44;18241350;32;20094;-54
2022/08/13 00:45:42;;;;;;;7.95;2.80;;;;;;;23.19;45.91;100330.59;18240647;32;20090;-55
2022/08/13 00:55:49;;;;;;;7.05;3.37;;;;;;;23.05;46.28;100314.53;18240737;32;20387;-57
2022/08/13 01:05:56;;;;;;;5.82;2.83;;;;;;;;;;18240333;32;20101;-57
2022/08/13 01:16:05;;;;;;;7.60;3.22;;;;;;;23.18;45.91;100296.06;18239779;32;20719;-57
2022/08/13 01:26:13;;;;;;;7.90;3.12;;;;;;;22.89;46.88;100286.09;18238640;32;20458;-57
2022/08/13 01:36:23;;;;;;;6.45;3.12;;;;;;;22.96;46.49;100281.31;18238848;32;20449;-57
2022/08/13 01:57:11;;;;;;;7.18;3.50;;;;;;;22.10;49.40;100285.84;18237541;32;20109;-57
2022/08/13 02:07:20;;;;;;;7.97;3.70;;;;;;;22.23;49.20;100283.41;18236952;32;20169;-57
2022/08/13 02:17:27;;;;;;;6.93;3.47;;;;;;;22.42;48.69;100279.75;18235108;32;20120;-57
2022/08/13 02:27:54;;;;;;;9.23;4.03;;;;;;;22.35;49.02;100270.38;18237167;32;20117;-57
2022/08/13 02:38:00;;;;;;;8.93;4.07;;;;;;;22.30;49.43;100271.50;18244629;32;20086;-57
2022/08/13 02:48:08;;;;;;;9.52;4.00;;;;;;;22.17;50.14;100260.66;18242760;32;20159;-57
2022/08/13 02:58:21;;;;;;;9.15;4.03;;;;;;;22.24;50.23;100252.34;18244258;32;20093;-57
2022/08/13 03:08:27;;;;;;;8.60;3.95;;;;;;;22.13;50.92;100248.47;18243455;32;20114;-57
2022/08/13 03:18:44;;;;;;;8.63;4.20;;;;;;;22.16;50.65;100236.81;18244004;32;20104;-57
2022/08/13 03:28:57;;;;;;;8.18;4.22;;;;;;;21.92;51.48;100242.50;18243322;32;20090;-57
2022/08/13 03:39:01;;;;;;;8.00;3.60;;;;;;;21.61;52.66;100239.59;18237218;32;184899;-57
2022/08/13 03:49:06;;;;;;;10.23;4.40;;;;;;;21.60;52.64;100226.38;18242713;32;20113;-57
2022/08/13 03:59:13;;;;;;;14.20;4.60;;;;;;;21.52;53.33;100217.94;18242609;32;20094;-57
2022/08/13 04:09:18;;;;;;;10.32;4.43;;;;;;;21.53;53.43;100222.31;18243060;32;20098;-57
2022/08/13 04:19:26;;;;;;;12.07;4.72;;;;;;;21.77;53.63;100220.25;18242086;32;20099;-57
2022/08/13 04:29:32;;;;;;;10.05;4.30;;;;;;;22.71;51.49;100206.34;18241400;32;20102;-57
2022/08/13 04:39:52;;;;;;;9.32;4.18;;;;;;;22.97;51.54;100203.16;18241240;32;20110;-57
2022/08/13 04:50:14;;;;;;;9.10;4.80;;;;;;;22.98;51.47;100204.88;18240378;32;20105;-57
2022/08/13 05:00:24;;;;;;;9.52;4.25;;;;;;;23.21;50.96;100194.69;18240307;32;20178;-57
2022/08/13 05:10:30;;;;;;;10.05;4.50;;;;;;;22.79;52.76;100202.41;18256912;32;20093;-57
2022/08/13 05:20:34;;;;;;;10.98;4.25;;;;;;;23.40;51.42;100208.66;18262154;32;20090;-54
2022/08/13 05:30:40;;;;;;;10.77;4.80;;;;;;;23.04;52.73;100223.13;18298822;32;20163;-55
2022/08/13 05:40:44;;;;;;;8.10;4.10;;;;;;;23.85;50.60;100210.47;18301450;32;20102;-55
2022/08/13 05:51:00;;;;;;;8.20;3.80;;;;;;;24.51;48.38;100213.50;18256220;32;20070;-55
2022/08/13 06:11:27;;;;;;;9.27;4.10;;;;;;;25.40;46.82;100212.25;18244161;32;20090;-55
2022/08/13 06:21:50;;;;;;;8.88;4.25;;;;;;;25.94;45.11;100200.56;18246596;32;20122;-55
2022/08/13 06:32:05;;;;;;;8.30;4.22;;;;;;;26.77;42.23;100205.44;18244247;32;20104;-55
2022/08/13 06:42:29;;;;;;;8.98;4.37;;;;;;;26.47;43.14;100204.06;18244991;32;20102;-57
2022/08/13 06:52:34;;;;;;;9.52;4.28;;;;;;;26.37;43.29;100199.38;18244076;32;20112;-57
2022/08/13 07:02:42;;;;;;;9.63;4.35;;;;;;;27.23;40.79;100195.81;18244250;32;20188;-57
2022/08/13 07:12:49;;;;;;;8.27;3.75;;;;;;;27.21;41.51;100195.91;18243378;32;20117;-55
2022/08/13 07:22:54;;;;;;;7.57;3.80;;;;;;;27.63;40.62;100189.25;18242864;32;20121;-55
2022/08/13 07:33:18;;;;;;;9.00;4.22;;;;;;;27.74;39.86;100191.94;18240835;32;20172;-55
2022/08/13 07:43:26;;;;;;;9.40;4.20;;;;;;;27.49;39.90;100191.12;18242560;32;20102;-55
2022/08/13 07:53:43;;;;;;;9.18;4.22;;;;;;;28.49;37.62;100194.97;18242816;32;20081;-55
2022/08/13 08:04:02;;;;;;;8.65;3.78;;;;;;;28.30;38.28;100198.31;18242573;32;20420;-55
2022/08/13 08:14:08;;;;;;;9.05;4.22;;;;;;;29.32;36.60;100183.72;18240351;32;20142;-55
2022/08/13 08:24:16;;;;;;;9.07;4.10;;;;;;;29.31;37.10;100159.63;18242166;32;20770;-55
2022/08/13 08:34:34;;;;;;;7.60;3.75;;;;;;;29.85;35.25;100163.09;18240733;32;20098;-55
2022/08/13 08:44:38;;;;;;;8.57;3.95;;;;;;;30.15;34.77;100161.41;18241159;32;20104;-55
2022/08/13 08:54:43;;;;;;;8.30;4.25;;;;;;;29.51;34.96;100146.38;18255703;32;20126;-55
2022/08/13 09:04:54;;;;;;;8.07;4.00;;;;;;;30.46;35.42;100138.94;18265995;32;20086;-55
2022/08/13 09:15:23;;;;;;;9.10;4.10;;;;;;;30.02;34.05;100120.38;18303952;32;20093;-55
2022/08/13 09:25:26;;;;;;;8.23;4.10;;;;;;;29.79;34.56;100119.75;18300580;32;20505;-55
2022/08/13 09:35:33;;;;;;;8.88;3.90;;;;;;;29.08;36.36;100106.03;18296700;32;20093;-55
2022/08/13 09:45:39;;;;;;;9.20;3.95;;;;;;;29.54;34.34;100100.38;18242189;32;20116;-55
2022/08/13 09:55:50;;;;;;;9.75;4.25;;;;;;;28.53;35.62;100099.78;18242383;32;20086;-55
2022/08/13 10:05:55;;;;;;;7.95;3.53;;;;;;;29.44;34.12;100090.44;18242646;32;20472;-55
2022/08/13 10:16:00;;;;;;;9.65;3.70;;;;;;;30.02;33.69;100083.56;18262374;32;20129;-55
2022/08/13 10:26:04;;;;;;;8.13;4.10;;;;;;;30.12;32.32;100083.63;18303444;32;20107;-55
2022/08/13 10:36:11;;;;;;;8.55;3.60;;;;;;;30.94;32.89;100080.69;18304832;32;20137;-55
2022/08/13 10:46:16;;;;;;;10.88;3.80;;;;;;;30.04;32.58;100072.66;18304157;32;20093;-55
2022/08/13 10:56:32;;;;;;;8.07;3.80;;;;;;;31.38;31.22;100060.47;18303736;32;20139;-55
2022/08/13 11:06:37;;;;;;;8.85;3.85;;;;;;;31.67;31.34;100057.63;18303889;32;20344;-55
2022/08/13 11:27:07;;;;;;;8.20;3.65;;;;;;;31.54;31.01;100047.19;18302651;32;20192;-55
2022/08/13 11:37:13;;;;;;;7.05;3.55;;;;;;;31.78;30.66;100047.66;18301047;32;20109;-55
2022/08/13 11:47:17;;;;;;;8.00;3.75;;;;;;;31.85;30.28;100037.97;18299671;32;20094;-55
2022/08/13 11:57:35;;;;;;;7.47;3.83;;;;;;;31.79;29.74;100031.28;18302534;32;20456;-55
2022/08/13 12:07:48;;;;;;;7.15;3.50;;;;;;;30.89;31.09;100014.75;18271822;32;20139;-55
2022/08/13 12:17:53;;;;;;;8.13;3.45;;;;;;;31.31;29.64;100017.06;18238681;32;20113;-55
2022/08/13 12:28:11;;;;;;;6.85;3.62;;;;;;;31.73;29.27;100023.81;18238559;32;20208;-55
2022/08/13 12:38:26;;;;;;;7.93;3.20;;;;;;;32.16;28.59;100009.78;18238106;32;20106;-55
2022/08/13 12:48:32;;;;;;;8.60;3.67;;;;;;;32.42;28.31;99998.22;18237281;32;20186;-55
2022/08/13 12:58:37;;;;;;;7.12;3.45;;;;;;;32.75;27.36;99988.50;18237554;32;20125;-55
2022/08/13 13:08:40;;;;;;;7.10;2.87;;;;;;;33.11;26.58;99989.44;18259806;32;20074;-55
2022/08/13 13:18:57;;;;;;;5.50;2.90;;;;;;;33.03;27.06;99977.56;18284313;32;20123;-55
2022/08/13 13:29:02;;;;;;;4.90;2.35;;;;;;;32.56;26.51;99965.22;18295319;32;20098;-55
2022/08/13 13:39:06;;;;;;;5.75;2.55;;;;;;;34.04;24.39;99949.81;18298771;32;20094;-55
2022/08/13 13:49:24;;;;;;;6.62;3.05;;;;;;;33.28;24.13;99950.63;18270849;32;20132;-55
2022/08/13 13:59:28;;;;;;;6.65;2.75;;;;;;;34.33;23.46;99924.09;18256498;32;20102;-55
2022/08/13 14:09:39;;;;;;;5.35;2.62;;;;;;;34.00;23.40;99927.66;18299188;32;20121;-55
2022/08/13 14:19:43;;;;;;;4.55;2.20;;;;;;;32.39;26.14;99931.87;18297627;32;20090;-55
2022/08/13 14:29:55;;;;;;;5.37;2.60;;;;;;;32.95;25.35;99923.44;18304870;32;20090;-55
2022/08/13 14:39:59;;;;;;;5.97;2.65;;;;;;;32.46;26.07;99915.88;18307799;32;20110;-54
2022/08/13 14:50:07;;;;;;;5.37;2.33;;;;;;;32.97;25.23;99902.50;18308598;32;20445;-55
2022/08/13 15:00:16;;;;;;;7.03;2.80;;;;;;;32.84;24.97;99896.69;18306993;32;20363;-55
2022/08/13 15:10:29;;;;;;;5.62;2.60;;;;;;;32.42;25.29;99887.50;18307006;32;20108;-55
2022/08/13 15:20:38;;;;;;;5.03;2.70;;;;;;;31.15;27.91;99874.78;18302203;32;20085;-55
2022/08/13 15:31:03;;;;;;;5.53;2.53;;;;;;;30.40;28.41;99864.87;18299724;32;20108;-55
2022/08/13 15:41:08;;;;;;;3.85;2.10;;;;;;;31.31;27.51;99867.94;18302911;32;20148;-55
2022/08/13 15:51:14;;;;;;;5.18;2.30;;;;;;;31.55;26.00;99857.41;18294970;32;20196;-55
2022/08/13 16:01:35;;;;;;;5.20;2.28;;;;;;;31.16;26.30;99860.34;18244727;32;20085;-55
2022/08/13 16:11:46;;;;;;;5.22;2.58;;;;;;;31.50;26.03;99858.88;18242478;32;20111;-55
2022/08/13 16:21:51;;;;;;;4.43;2.20;;;;;;;31.81;25.92;99851.22;18243092;32;20367;-55
2022/08/13 16:31:55;;;;;;;5.10;2.45;;;;;;;31.32;25.87;99848.91;18241725;32;20094;-55
2022/08/13 16:42:00;;;;;;;4.62;2.30;;;;;;;31.22;26.12;99853.50;18240973;32;20098;-55
2022/08/13 16:52:04;;;;;;;9.68;2.55;;;;;;;31.57;25.60;99857.22;18240273;32;20106;-55
2022/08/13 17:02:22;;;;;;;6.82;2.50;;;;;;;31.26;26.51;99849.50;18241605;32;20094;-55
2022/08/13 17:12:29;;;;;;;7.30;2.83;;;;;;;30.95;27.24;99850.63;18241436;32;20105;-55
2022/08/13 17:22:41;;;;;;;8.85;3.65;;;;;;;30.62;30.04;99849.34;18239360;32;20117;-56
2022/08/13 17:32:49;;;;;;;6.95;2.72;;;;;;;30.10;31.92;99848.78;18290904;32;20093;-55
2022/08/13 17:42:54;;;;;;;7.62;3.17;;;;;;;29.48;33.69;99855.28;18297045;32;20112;-55
2022/08/13 17:53:17;;;;;;;11.57;3.28;;;;;;;28.81;34.76;99857.59;18286223;32;20166;-55
2022/08/13 18:03:24;;;;;;;10.13;3.05;;;;;;;28.20;35.92;99864.63;18293119;32;20120;-55
2022/08/13 18:13:37;;;;;;;5.82;2.90;;;;;;;27.64;38.01;99869.25;18257661;32;20104;-55
2022/08/13 18:24:02;;;;;;;15.45;3.37;;;;;;;27.11;39.08;99884.19;18242034;32;20122;-55
2022/08/13 18:34:05;;;;;;;13.50;3.47;;;;;;;26.54;39.85;99893.03;18241609;32;20113;-55
2022/08/13 18:44:25;;;;;;;8.13;3.42;;;;;;;25.99;39.87;99893.56;18241486;32;20168;-55
2022/08/13 18:54:38;;;;;;;11.75;4.18;;;;;;;25.50;41.18;99898.06;18240958;32;20112;-55
2022/08/13 19:04:49;;;;;;;7.47;2.92;;;;;;;25.22;42.33;99900.03;18241208;32;20085;-55
2022/08/13 19:14:53;;;;;;;8.05;3.70;;;;;;;24.80;43.22;99922.53;18281568;32;20109;-55
2022/08/13 19:24:58;;;;;;;9.32;3.92;;;;;;;24.64;42.86;99919.19;18299385;32;20086;-56
2022/08/13 19:35:01;;;;;;;9.27;4.57;;;;;;;24.21;44.37;99928.31;18298603;32;20109;-56
2022/08/13 19:45:10;;;;;;;10.38;4.47;;;;;;;24.08;45.87;99928.25;18303481;32;20105;-56
2022/08/13 19:55:19;;;;;;;10.95;5.03;;;;;;;24.10;46.36;99923.72;18303610;32;20120;-56
2022/08/13 20:05:45;;;;;;;12.63;4.50;;;;;;;23.81;47.44;99926.47;18296923;32;20094;-56
2022/08/13 20:15:55;;;;;;;8.38;4.57;;;;;;;23.58;48.19;99933.28;18278194;32;20462;-56
2022/08/13 20:26:01;;;;;;;9.63;4.57;;;;;;;23.48;48.13;99939.19;18258684;32;20089;-56
2022/08/13 20:36:09;;;;;;;11.10;4.28;;;;;;;23.33;48.30;99935.69;18300961;32;20112;-56
2022/08/13 20:46:15;;;;;;;10.45;4.05;;;;;;;23.16;48.60;99935.88;18300851;32;20120;-56
2022/08/13 20:56:21;;;;;;;12.10;4.47;;;;;;;22.80;49.42;99941.56;18298572;32;20108;-56
2022/08/13 21:06:46;;;;;;;11.02;4.32;;;;;;;22.71;49.81;99945.63;18302557;32;20102;-55
2022/08/13 21:16:54;;;;;;;10.48;4.57;;;;;;;22.84;49.63;99940.41;18301017;32;20105;-56
2022/08/13 21:26:59;;;;;;;10.40;4.47;;;;;;;22.70;50.73;99941.25;18298920;32;20102;-56
2022/08/13 21:37:02;;;;;;;10.45;4.75;;;;;;;22.47;51.46;99934.63;18297621;32;20101;-56
2022/08/13 21:47:15;;;;;;;11.30;5.15;;;;;;;22.59;51.53;99941.94;18263079;32;20127;-55
2022/08/13 21:57:23;;;;;;;10.77;4.75;;;;;;;22.31;52.81;99948.84;18257342;32;20102;-56
2022/08/13 22:07:29;;;;;;;11.65;5.15;;;;;;;22.09;53.15;99935.06;18255351;32;20153;-56
2022/08/13 22:17:52;;;;;;;11.60;5.90;;;;;;;22.06;53.53;99924.63;18257268;32;20112;-56
2022/08/13 22:27:57;;;;;;;12.13;5.43;;;;;;;22.24;53.90;99909.41;18273984;32;20098;-56
2022/08/13 22:38:01;;;;;;;10.80;5.20;;;;;;;22.20;54.16;99914.06;18253474;32;20132;-56
2022/08/13 22:48:06;;;;;;;9.60;5.15;;;;;;;21.94;54.35;99903.16;18247471;32;20106;-55
2022/08/13 22:58:11;;;;;;;11.48;5.32;;;;;;;21.62;55.22;99895.19;18241645;32;20152;-55
2022/08/13 23:08:16;;;;;;;9.50;5.57;;;;;;;21.52;55.32;99891.31;18241024;32;20444;-56
2022/08/13 23:18:23;;;;;;;9.50;4.87;;;;;;;21.54;55.08;99892.13;18240579;32;20099;-55
2022/08/13 23:28:30;;;;;;;11.05;5.47;;;;;;;21.54;55.01;99879.69;18239847;32;20090;-56
2022/08/13 23:38:35;;;;;;;11.65;5.62;;;;;;;21.38;55.43;99894.75;18240097;32;20094;-56
2022/08/13 23:48:39;;;;;;;11.60;5.57;;;;;;;21.19;56.25;99886.03;18240681;32;20152;-55
2022/08/13 23:58:45;;;;;;;9.13;4.60;;;;;;;21.45;55.72;99894.34;18240608;32;20188;-55
